9IN5 weather

Dupont Hospital Heliport
Fort Wayne, Indiana, United States

Public forecast

Using degrees Fahrenheit for public forecast. Weather courtesy of forecast.io.

METAR (pilot weather report)

Closest report is De Kalb County Airport, 8.2 nm (15.2 km) NNE. Retrieved 2019/04/24 02:15 UTC (0 seconds ago):

KGWB 240215Z AUTO 28007KT 10SM CLR 08/04 A3004 RMK AO2

TAF (pilot weather forecast)

Forecast is more than 12 hours old.

Closest forecast is Fort Wayne International Airport, 12.4 nm (23.0 km) SSW. Retrieved 2019/04/23 00:22 UTC (1 day ago):

TAF KFWA 232320Z 2400/2424 30010KT P6SM FEW015 BKN250 FM240200 VRB03KT P6SM SCT200